createdAt,value
2022-11-02T00:00:21.081Z,8.56
2022-11-02T00:01:29.533Z,8.61
2022-11-02T00:02:33.065Z,8.59
2022-11-02T00:03:36.611Z,8.56
2022-11-02T00:04:44.504Z,8.58
2022-11-02T00:05:48.009Z,8.54
2022-11-02T00:06:51.407Z,8.55
2022-11-02T00:07:55.122Z,8.59
2022-11-02T00:08:57.793Z,8.65
2022-11-02T00:10:01.518Z,8.66
2022-11-02T00:11:04.930Z,8.64
2022-11-02T00:12:08.298Z,8.59
2022-11-02T00:13:10.443Z,8.57
2022-11-02T00:14:13.530Z,8.60
2022-11-02T00:15:21.488Z,8.58
2022-11-02T00:16:26.065Z,8.57
2022-11-02T00:17:28.863Z,8.59
2022-11-02T00:18:34.549Z,8.58
2022-11-02T00:19:37.859Z,8.61
2022-11-02T00:20:41.145Z,8.64
2022-11-02T00:21:45.701Z,8.67
2022-11-02T00:22:52.957Z,8.71
2022-11-02T00:23:56.597Z,8.73
2022-11-02T00:25:04.421Z,8.76
2022-11-02T00:26:07.897Z,8.78
2022-11-02T00:27:13.086Z,8.80
2022-11-02T00:28:17.832Z,8.77
2022-11-02T00:29:27.797Z,8.79
2022-11-02T00:30:35.083Z,8.83
2022-11-02T00:31:38.273Z,8.84
2022-11-02T00:32:41.610Z,8.87
2022-11-02T00:33:44.820Z,8.86
2022-11-02T00:34:49.209Z,8.78
2022-11-02T00:35:53.512Z,8.81
2022-11-02T00:36:57.434Z,8.80
2022-11-02T00:38:03.843Z,8.77
2022-11-02T00:39:07.201Z,8.77
2022-11-02T00:40:10.252Z,8.71
2022-11-02T00:41:12.594Z,8.76
2022-11-02T00:42:19.584Z,8.71
2022-11-02T00:43:23.363Z,8.63
2022-11-02T00:44:26.777Z,8.62
2022-11-02T00:45:29.446Z,8.57
2022-11-02T00:46:32.948Z,8.51
2022-11-02T00:47:36.233Z,8.48
2022-11-02T00:48:40.797Z,8.42
2022-11-02T00:49:45.070Z,8.35
2022-11-02T00:50:51.693Z,8.34
2022-11-02T00:51:55.488Z,8.32
2022-11-02T00:52:59.975Z,8.28
2022-11-02T00:54:03.112Z,8.25
2022-11-02T00:55:10.600Z,8.21
2022-11-02T00:56:18.073Z,8.16
2022-11-02T00:57:21.367Z,8.14
2022-11-02T00:58:25.394Z,8.13
2022-11-02T00:59:30.003Z,8.13
2022-11-02T01:00:33.388Z,8.09
2022-11-02T01:01:37.164Z,8.08
2022-11-02T01:02:40.631Z,8.06
2022-11-02T01:03:43.596Z,8.08
2022-11-02T01:04:47.896Z,8.08
2022-11-02T01:05:51.392Z,8.02
2022-11-02T01:06:54.677Z,7.98
2022-11-02T01:07:56.823Z,8.02
2022-11-02T01:09:01.589Z,8.03
2022-11-02T01:10:07.785Z,7.99
2022-11-02T01:11:11.947Z,7.87
2022-11-02T01:12:20.492Z,7.91
2022-11-02T01:13:23.928Z,7.94
2022-11-02T01:14:27.683Z,7.94
2022-11-02T01:15:33.843Z,7.87
2022-11-02T01:16:39.997Z,7.73
2022-11-02T01:17:43.424Z,7.63
2022-11-02T01:18:50.560Z,7.64
2022-11-02T01:19:56.169Z,7.64
2022-11-02T01:21:04.412Z,7.60
2022-11-02T01:22:08.410Z,7.58
2022-11-02T01:23:14.721Z,7.59
2022-11-02T01:24:18.097Z,7.57
2022-11-02T01:25:22.194Z,7.50
2022-11-02T01:26:28.208Z,7.49
2022-11-02T01:27:35.112Z,7.43
2022-11-02T01:28:37.804Z,7.39
2022-11-02T01:29:41.401Z,7.30
2022-11-02T01:30:43.968Z,7.32
2022-11-02T01:31:50.325Z,7.31
2022-11-02T01:32:53.516Z,7.35
2022-11-02T01:33:57.093Z,7.29
2022-11-02T01:35:00.274Z,7.23
2022-11-02T01:36:04.718Z,7.25
2022-11-02T01:37:08.451Z,7.14
2022-11-02T01:38:12.744Z,7.15
2022-11-02T01:39:16.603Z,7.17
2022-11-02T01:40:19.169Z,7.14
2022-11-02T01:41:22.568Z,7.12
2022-11-02T01:42:27.874Z,7.15
2022-11-02T01:43:34.162Z,7.14
2022-11-02T01:44:37.509Z,7.10
2022-11-02T01:45:44.096Z,7.06
2022-11-02T01:46:48.238Z,7.06
2022-11-02T01:47:51.745Z,7.06
2022-11-02T01:49:00.265Z,7.13
2022-11-02T01:50:04.802Z,7.17
2022-11-02T01:51:13.025Z,7.16
2022-11-02T01:52:24.034Z,7.19
2022-11-02T01:53:27.378Z,7.19
2022-11-02T01:54:32.193Z,7.16
2022-11-02T01:55:34.562Z,7.19
2022-11-02T01:56:40.789Z,7.22
2022-11-02T01:57:44.899Z,7.27
2022-11-02T01:58:50.190Z,7.24
2022-11-02T01:59:54.312Z,7.22
2022-11-02T02:00:57.482Z,7.20
2022-11-02T02:02:03.571Z,7.18
2022-11-02T02:03:10.048Z,7.10
2022-11-02T02:04:14.714Z,7.08
2022-11-02T02:05:19.159Z,7.02
2022-11-02T02:06:22.977Z,7.06
2022-11-02T02:07:26.999Z,7.04
2022-11-02T02:08:29.882Z,7.08
2022-11-02T02:09:33.601Z,7.09
2022-11-02T02:10:37.072Z,7.12
2022-11-02T02:11:42.301Z,7.16
2022-11-02T02:12:46.961Z,7.12
2022-11-02T02:13:52.449Z,7.05
2022-11-02T02:14:55.611Z,6.99
2022-11-02T02:16:15.620Z,6.98
2022-11-02T02:17:29.991Z,6.89
2022-11-02T02:18:41.638Z,6.85
2022-11-02T02:19:57.680Z,6.79
2022-11-02T02:21:09.539Z,6.80
2022-11-02T02:22:32.576Z,6.83
2022-11-02T02:23:49.136Z,6.77
2022-11-02T02:25:11.056Z,6.66
2022-11-02T02:26:22.249Z,6.67
2022-11-02T02:27:45.285Z,6.64
2022-11-02T02:28:56.490Z,6.67
2022-11-02T02:30:07.349Z,6.74
2022-11-02T02:31:24.629Z,6.72
2022-11-02T02:32:39.935Z,6.75
2022-11-02T02:33:47.733Z,6.74
2022-11-02T02:34:56.974Z,6.65
2022-11-02T02:36:07.800Z,6.63
2022-11-02T02:37:14.234Z,6.54
2022-11-02T02:38:22.225Z,6.46
2022-11-02T02:39:31.600Z,6.45
2022-11-02T02:40:40.612Z,6.38
2022-11-02T02:41:45.170Z,6.36
2022-11-02T02:42:51.428Z,6.36
2022-11-02T02:43:56.880Z,6.34
2022-11-02T02:45:16.909Z,6.39
2022-11-02T02:46:21.956Z,6.33
2022-11-02T02:47:29.439Z,6.28
2022-11-02T02:48:37.957Z,6.26
2022-11-02T02:49:43.120Z,6.23
2022-11-02T02:50:50.606Z,6.24
2022-11-02T02:51:56.510Z,6.27
2022-11-02T02:53:04.811Z,6.25
2022-11-02T02:54:11.133Z,6.24
2022-11-02T02:55:16.019Z,6.26
2022-11-02T02:56:21.288Z,6.27
2022-11-02T02:57:26.393Z,6.28
2022-11-02T02:58:30.584Z,6.28
2022-11-02T02:59:36.298Z,6.27
2022-11-02T03:00:40.011Z,6.23
2022-11-02T03:01:45.021Z,6.25
2022-11-02T03:02:50.880Z,6.23
2022-11-02T03:03:55.734Z,6.27
2022-11-02T03:05:01.986Z,6.25
2022-11-02T03:06:09.437Z,6.24
2022-11-02T03:07:16.912Z,6.18
2022-11-02T03:08:22.069Z,6.17
2022-11-02T03:09:33.846Z,6.17
2022-11-02T03:10:45.592Z,6.19
2022-11-02T03:11:51.090Z,6.24
2022-11-02T03:12:55.631Z,6.28
2022-11-02T03:14:09.903Z,6.26
2022-11-02T03:15:27.260Z,6.29
2022-11-02T03:16:37.376Z,6.18
2022-11-02T03:17:45.553Z,6.14
2022-11-02T03:18:55.770Z,6.13
2022-11-02T03:20:06.690Z,6.12
2022-11-02T03:21:21.384Z,6.07
2022-11-02T03:22:34.395Z,6.04
2022-11-02T03:23:57.941Z,6.02
2022-11-02T03:25:16.486Z,6.08
2022-11-02T03:26:26.676Z,6.02
2022-11-02T03:27:31.958Z,5.90
2022-11-02T03:28:44.000Z,5.95
2022-11-02T03:29:52.140Z,6.00
2022-11-02T03:31:04.434Z,5.96
2022-11-02T03:32:09.583Z,6.00
2022-11-02T03:33:17.787Z,6.07
2022-11-02T03:34:23.183Z,5.98
2022-11-02T03:35:48.310Z,5.92
2022-11-02T03:36:57.228Z,5.88
2022-11-02T03:38:02.898Z,5.95
2022-11-02T03:39:09.679Z,5.94
2022-11-02T03:40:16.107Z,5.88
2022-11-02T03:41:21.490Z,5.90
2022-11-02T03:42:29.289Z,5.89
2022-11-02T03:43:34.569Z,5.94
2022-11-02T03:44:39.741Z,5.91
2022-11-02T03:45:45.444Z,5.91
2022-11-02T03:46:50.412Z,5.97
2022-11-02T03:47:57.257Z,6.00
2022-11-02T03:49:04.629Z,6.03
2022-11-02T03:50:06.671Z,6.07
2022-11-02T03:51:11.620Z,6.09
2022-11-02T03:52:16.813Z,6.00
2022-11-02T03:53:24.916Z,5.99
2022-11-02T03:54:36.985Z,5.97
2022-11-02T03:55:44.666Z,6.07
2022-11-02T03:56:50.957Z,6.13
2022-11-02T03:57:55.027Z,6.11
2022-11-02T03:59:00.290Z,6.13
2022-11-02T04:00:11.680Z,6.11
2022-11-02T04:01:18.329Z,6.10
2022-11-02T04:02:22.343Z,6.12
2022-11-02T04:03:28.305Z,6.10
2022-11-02T04:04:32.184Z,6.14
2022-11-02T04:05:36.998Z,6.14
2022-11-02T04:06:49.045Z,6.17
2022-11-02T04:08:12.824Z,6.14
2022-11-02T04:09:19.421Z,6.16
2022-11-02T04:10:22.735Z,6.14
2022-11-02T04:11:44.552Z,6.12
2022-11-02T04:13:07.580Z,6.09
2022-11-02T04:14:30.106Z,6.12
2022-11-02T04:15:33.807Z,6.06
2022-11-02T04:16:38.775Z,6.05
2022-11-02T04:18:02.830Z,6.03
2022-11-02T04:19:26.206Z,6.04
2022-11-02T04:20:29.933Z,6.06
2022-11-02T04:21:33.844Z,6.17
2022-11-02T04:22:56.366Z,6.19
2022-11-02T04:24:18.140Z,6.25
2022-11-02T04:25:22.168Z,6.39
2022-11-02T04:26:45.216Z,6.47
2022-11-02T04:27:51.088Z,6.48
2022-11-02T04:28:55.036Z,6.53
2022-11-02T04:30:00.943Z,6.50
2022-11-02T04:31:06.024Z,6.46
2022-11-02T04:32:14.126Z,6.41
2022-11-02T04:33:35.799Z,6.45
2022-11-02T04:34:43.909Z,6.49
2022-11-02T04:35:47.715Z,6.52
2022-11-02T04:36:52.129Z,6.54
2022-11-02T04:38:14.177Z,6.51
2022-11-02T04:39:16.517Z,6.51
2022-11-02T04:40:20.129Z,6.62
2022-11-02T04:41:41.178Z,6.69
2022-11-02T04:42:50.617Z,6.69
2022-11-02T04:43:58.057Z,6.65
2022-11-02T04:45:01.298Z,6.65
2022-11-02T04:46:04.807Z,6.72
2022-11-02T04:47:08.929Z,6.75
2022-11-02T04:48:12.549Z,6.79
2022-11-02T04:49:15.834Z,6.82
2022-11-02T04:50:19.147Z,6.81
2022-11-02T04:51:22.950Z,6.79
2022-11-02T04:52:26.767Z,6.76
2022-11-02T04:53:31.081Z,6.80
2022-11-02T04:54:34.624Z,6.74
2022-11-02T04:55:39.893Z,6.79
2022-11-02T04:56:44.661Z,6.83
2022-11-02T04:57:48.167Z,6.86
2022-11-02T04:59:01.694Z,6.93
2022-11-02T05:00:09.085Z,6.98
2022-11-02T05:01:14.474Z,7.05
2022-11-02T05:02:22.599Z,7.02
2022-11-02T05:03:26.884Z,6.93
2022-11-02T05:04:30.966Z,6.91
2022-11-02T05:05:34.010Z,6.90
2022-11-02T05:06:38.587Z,6.89
2022-11-02T05:07:41.843Z,6.94
2022-11-02T05:08:45.255Z,6.94
2022-11-02T05:09:48.020Z,6.99
2022-11-02T05:10:54.763Z,7.08
2022-11-02T05:11:58.410Z,7.11
2022-11-02T05:13:02.107Z,7.15
2022-11-02T05:14:07.196Z,7.11
2022-11-02T05:15:10.557Z,7.13
2022-11-02T05:16:14.803Z,7.17
2022-11-02T05:17:17.557Z,7.18
2022-11-02T05:19:25.727Z,7.21
2022-11-02T05:20:29.554Z,7.23
2022-11-02T05:21:33.479Z,7.26
2022-11-02T05:22:37.191Z,7.34
2022-11-02T05:23:40.686Z,7.40
2022-11-02T05:24:44.098Z,7.40
2022-11-02T05:26:00.658Z,7.37
2022-11-02T05:27:04.893Z,7.40
2022-11-02T05:28:09.932Z,7.46
2022-11-02T05:29:13.402Z,7.48
2022-11-02T05:30:17.669Z,7.47
2022-11-02T05:31:21.211Z,7.51
2022-11-02T05:32:24.183Z,7.38
2022-11-02T05:33:30.878Z,7.40
2022-11-02T05:34:35.932Z,7.44
2022-11-02T05:35:39.693Z,7.39
2022-11-02T05:36:43.438Z,7.37
2022-11-02T05:37:46.931Z,7.34
2022-11-02T05:38:52.003Z,7.35
2022-11-02T05:39:56.560Z,7.32
2022-11-02T05:41:00.409Z,7.33
2022-11-02T05:42:04.605Z,7.29
2022-11-02T05:43:09.676Z,7.07
2022-11-02T05:44:16.107Z,7.13
2022-11-02T05:45:23.686Z,7.08
2022-11-02T05:46:25.433Z,7.09
2022-11-02T05:47:29.040Z,7.10
2022-11-02T05:48:33.877Z,7.11
2022-11-02T05:49:39.575Z,7.10
2022-11-02T05:50:43.205Z,7.11
2022-11-02T05:51:46.718Z,7.11
2022-11-02T05:52:50.112Z,7.09
2022-11-02T05:53:55.867Z,6.97
2022-11-02T05:55:02.446Z,6.99
2022-11-02T05:56:07.416Z,6.91
2022-11-02T05:57:10.806Z,6.95
2022-11-02T05:58:14.322Z,7.05
2022-11-02T05:59:17.681Z,7.11
2022-11-02T06:00:21.017Z,7.19
2022-11-02T06:01:25.246Z,7.26
2022-11-02T06:02:28.472Z,7.36
2022-11-02T06:03:31.541Z,7.42
2022-11-02T06:04:35.246Z,7.47
2022-11-02T06:05:38.576Z,7.39
2022-11-02T06:06:42.872Z,7.33
2022-11-02T06:07:48.163Z,7.30
2022-11-02T06:08:51.671Z,7.38
2022-11-02T06:09:53.911Z,7.52
2022-11-02T06:10:59.411Z,7.60
2022-11-02T06:12:03.776Z,7.74
2022-11-02T06:13:07.169Z,7.81
2022-11-02T06:14:11.156Z,7.86
2022-11-02T06:15:14.687Z,7.89
2022-11-02T06:16:22.912Z,7.87
2022-11-02T06:17:26.580Z,8.00
2022-11-02T06:18:30.002Z,8.07
2022-11-02T06:19:33.297Z,8.07
2022-11-02T06:20:36.172Z,7.96
2022-11-02T06:21:42.010Z,7.99
2022-11-02T06:22:47.052Z,8.20
2022-11-02T06:23:51.593Z,8.18
2022-11-02T06:24:56.775Z,8.27
2022-11-02T06:26:01.324Z,8.33
2022-11-02T06:27:04.506Z,8.39
2022-11-02T06:28:07.394Z,8.39
2022-11-02T06:29:09.926Z,8.46
2022-11-02T06:30:14.603Z,8.59
2022-11-02T06:31:19.632Z,8.67
2022-11-02T06:32:24.548Z,8.99
2022-11-02T06:33:28.056Z,9.17
2022-11-02T06:34:30.304Z,9.28
2022-11-02T06:35:34.438Z,9.32
2022-11-02T06:36:39.092Z,9.41
2022-11-02T06:37:42.595Z,9.70
2022-11-02T06:38:46.925Z,10.31
2022-11-02T06:39:51.310Z,10.72
2022-11-02T06:40:54.878Z,10.92
2022-11-02T06:41:58.486Z,11.02
2022-11-02T06:43:15.867Z,10.86
2022-11-02T06:44:06.851Z,11.06
2022-11-02T06:45:10.681Z,11.38
2022-11-02T06:46:13.140Z,11.99
2022-11-02T06:47:19.294Z,12.43
2022-11-02T06:48:23.505Z,12.31
2022-11-02T06:49:27.316Z,11.84
2022-11-02T06:50:30.492Z,11.80
2022-11-02T06:51:35.052Z,11.65
2022-11-02T06:52:40.543Z,11.58
2022-11-02T06:53:43.933Z,11.77
2022-11-02T06:54:47.027Z,11.92
2022-11-02T06:55:56.280Z,12.30
2022-11-02T06:56:59.669Z,13.12
2022-11-02T06:58:03.185Z,14.31
2022-11-02T06:59:06.586Z,15.91
2022-11-02T07:00:15.449Z,17.34
2022-11-02T07:01:19.387Z,18.42
2022-11-02T07:02:22.983Z,19.29
2022-11-02T07:03:26.665Z,20.20
2022-11-02T07:04:30.275Z,21.06
2022-11-02T07:05:34.299Z,21.65
2022-11-02T07:06:37.794Z,22.13
2022-11-02T07:07:41.134Z,22.36
2022-11-02T07:08:44.710Z,22.26
2022-11-02T07:09:47.892Z,21.69
2022-11-02T07:10:51.053Z,21.65
2022-11-02T07:11:55.162Z,22.33
2022-11-02T07:12:58.659Z,22.45
2022-11-02T07:14:03.002Z,22.50
2022-11-02T07:15:10.046Z,22.64
2022-11-02T07:16:13.309Z,22.91
2022-11-02T07:17:19.020Z,22.92
2022-11-02T07:18:23.465Z,23.05
2022-11-02T07:19:25.923Z,22.49
2022-11-02T07:20:29.940Z,22.54
2022-11-02T07:21:33.239Z,22.50
2022-11-02T07:22:36.218Z,22.93
2022-11-02T07:23:41.206Z,22.76
2022-11-02T07:24:44.010Z,22.33
2022-11-02T07:25:47.569Z,22.35
2022-11-02T07:26:52.858Z,22.51
2022-11-02T07:27:56.364Z,22.54
2022-11-02T07:28:59.765Z,22.96
2022-11-02T07:30:04.775Z,23.52
2022-11-02T07:31:08.487Z,23.64
2022-11-02T07:32:12.860Z,23.54
2022-11-02T07:33:16.270Z,23.44
2022-11-02T07:34:19.691Z,23.54
2022-11-02T07:35:23.073Z,23.51
2022-11-02T07:36:26.493Z,23.81
2022-11-02T07:37:29.151Z,23.66
2022-11-02T07:38:32.771Z,22.89
2022-11-02T07:39:36.278Z,22.09
2022-11-02T07:40:41.663Z,22.31
2022-11-02T07:41:50.830Z,22.55
2022-11-02T07:42:50.765Z,23.01
2022-11-02T07:43:56.068Z,23.07
2022-11-02T07:45:04.983Z,23.09
2022-11-02T07:46:08.482Z,23.57
2022-11-02T07:47:11.883Z,23.60
2022-11-02T07:48:15.167Z,23.27
2022-11-02T07:49:21.273Z,22.70
2022-11-02T07:50:22.806Z,23.23
2022-11-02T07:51:25.996Z,23.39
2022-11-02T07:52:29.084Z,23.44
2022-11-02T07:53:33.632Z,23.16
2022-11-02T07:54:37.679Z,23.62
2022-11-02T07:55:39.913Z,23.30
2022-11-02T07:57:57.273Z,22.86
2022-11-02T07:59:03.630Z,22.91
2022-11-02T08:00:07.719Z,23.11
2022-11-02T08:01:11.952Z,23.23
2022-11-02T08:02:15.420Z,24.03
2022-11-02T08:03:18.812Z,24.00
2022-11-02T08:05:26.183Z,23.91
2022-11-02T08:06:29.491Z,24.31
2022-11-02T08:07:33.623Z,24.56
2022-11-02T08:08:37.118Z,24.78
2022-11-02T08:09:40.727Z,24.68
2022-11-02T08:10:46.789Z,24.20
2022-11-02T08:11:50.156Z,24.69
2022-11-02T08:12:53.136Z,25.24
2022-11-02T08:13:56.565Z,25.03
2022-11-02T08:15:03.498Z,24.46
2022-11-02T08:16:06.195Z,24.38
2022-11-02T08:17:09.560Z,24.09
2022-11-02T08:18:14.520Z,24.03
2022-11-02T08:19:18.862Z,24.51
2022-11-02T08:20:22.987Z,24.61
2022-11-02T08:21:27.960Z,24.46
2022-11-02T08:22:31.250Z,24.57
2022-11-02T08:23:33.809Z,24.17
2022-11-02T08:24:37.326Z,23.49
2022-11-02T08:25:41.304Z,22.93
2022-11-02T08:26:45.966Z,22.76
2022-11-02T08:27:48.885Z,23.09
2022-11-02T08:28:52.394Z,22.90
2022-11-02T08:29:55.926Z,22.19
2022-11-02T08:30:59.702Z,21.85
2022-11-02T08:32:03.880Z,21.81
2022-11-02T08:33:10.224Z,21.43
2022-11-02T08:34:13.451Z,20.67
2022-11-02T08:35:16.903Z,19.92
2022-11-02T08:36:22.568Z,19.29
2022-11-02T08:37:25.745Z,18.97
2022-11-02T08:38:29.280Z,18.79
2022-11-02T08:39:32.768Z,18.84
2022-11-02T08:40:35.532Z,18.86
2022-11-02T08:41:37.792Z,19.19
2022-11-02T08:42:41.090Z,19.16
2022-11-02T08:43:44.699Z,19.20
2022-11-02T08:44:48.726Z,19.10
2022-11-02T08:46:13.855Z,18.45
2022-11-02T08:46:56.897Z,17.81
2022-11-02T08:48:02.263Z,17.89
2022-11-02T08:49:05.553Z,17.63
2022-11-02T08:50:08.547Z,17.63
2022-11-02T08:51:12.042Z,17.40
2022-11-02T08:52:17.646Z,17.33
2022-11-02T08:53:20.200Z,17.11
2022-11-02T08:54:23.392Z,17.18
2022-11-02T08:55:27.105Z,16.77
2022-11-02T08:56:30.729Z,16.55
2022-11-02T08:57:32.979Z,16.57
2022-11-02T08:58:36.160Z,16.77
2022-11-02T08:59:38.345Z,16.92
2022-11-02T09:00:41.611Z,16.85
2022-11-02T09:01:45.277Z,16.66
2022-11-02T09:04:14.050Z,16.60
2022-11-02T09:05:16.940Z,16.53
2022-11-02T09:06:20.233Z,16.67
2022-11-02T09:07:23.635Z,16.67
2022-11-02T09:08:28.710Z,16.74
2022-11-02T09:09:34.407Z,17.01
2022-11-02T09:10:39.258Z,16.93
2022-11-02T09:11:44.657Z,16.86
2022-11-02T09:12:49.099Z,16.95
2022-11-02T09:13:56.684Z,16.95
2022-11-02T09:14:56.517Z,16.84
2022-11-02T09:16:00.280Z,16.54
2022-11-02T09:17:03.676Z,16.53
2022-11-02T09:18:06.831Z,16.71
2022-11-02T09:19:10.861Z,16.72
2022-11-02T09:20:14.678Z,16.87
2022-11-02T09:21:19.125Z,16.68
2022-11-02T09:22:23.456Z,16.47
2022-11-02T09:23:26.691Z,16.50
2022-11-02T09:24:31.204Z,16.67
2022-11-02T09:25:34.804Z,16.79
2022-11-02T09:26:38.583Z,16.81
2022-11-02T09:27:42.591Z,16.78
2022-11-02T09:28:46.036Z,16.61
2022-11-02T09:29:49.665Z,16.33
2022-11-02T09:30:53.165Z,16.21
2022-11-02T09:31:56.355Z,16.25
2022-11-02T09:33:05.834Z,16.24
2022-11-02T09:34:09.632Z,16.17
2022-11-02T09:35:13.149Z,16.07
2022-11-02T09:36:17.386Z,16.29
2022-11-02T09:37:20.785Z,16.41
2022-11-02T09:38:24.708Z,16.34
2022-11-02T09:39:27.201Z,15.87
2022-11-02T09:40:38.289Z,15.99
2022-11-02T09:41:45.145Z,15.78
2022-11-02T09:42:54.820Z,15.70
2022-11-02T09:44:02.948Z,15.87
2022-11-02T09:45:07.917Z,16.19
2022-11-02T09:46:14.089Z,16.00
2022-11-02T09:48:03.131Z,15.86
2022-11-02T09:48:28.550Z,15.81
2022-11-02T09:49:31.760Z,16.06
2022-11-02T09:50:42.218Z,16.22
2022-11-02T09:51:48.855Z,16.33
2022-11-02T09:52:57.303Z,16.09
2022-11-02T09:54:05.175Z,16.23
2022-11-02T09:55:14.157Z,16.21
2022-11-02T09:56:21.353Z,16.10
2022-11-02T09:57:32.068Z,16.00
2022-11-02T09:58:36.630Z,15.83
2022-11-02T09:59:40.331Z,16.12
2022-11-02T10:00:49.035Z,16.00
2022-11-02T10:01:57.368Z,15.82
2022-11-02T10:03:01.870Z,15.63
2022-11-02T10:04:13.070Z,15.73
2022-11-02T10:05:18.537Z,15.85
2022-11-02T10:06:22.679Z,15.81
2022-11-02T10:07:38.740Z,15.68
2022-11-02T10:08:44.972Z,15.59
2022-11-02T10:09:50.636Z,15.56
2022-11-02T10:10:58.739Z,15.79
2022-11-02T10:12:04.226Z,15.77
2022-11-02T10:13:15.669Z,15.87
2022-11-02T10:14:21.253Z,15.88
2022-11-02T10:15:29.354Z,15.52
2022-11-02T10:16:33.489Z,15.64
2022-11-02T10:17:39.293Z,15.74
2022-11-02T10:18:42.689Z,15.69
2022-11-02T10:19:49.015Z,15.64
2022-11-02T10:20:53.980Z,15.52
2022-11-02T10:21:58.959Z,15.69
2022-11-02T10:23:04.497Z,15.62
2022-11-02T10:24:23.313Z,15.71
2022-11-02T10:25:28.263Z,15.73
2022-11-02T10:26:36.710Z,15.69
2022-11-02T10:27:40.907Z,15.68
2022-11-02T10:28:45.266Z,15.59
2022-11-02T10:30:04.751Z,15.66
2022-11-02T10:32:27.730Z,15.63
2022-11-02T17:40:20.242Z,11.62
2022-11-02T17:41:47.755Z,11.63
2022-11-02T17:43:00.456Z,11.62
2022-11-02T17:44:04.498Z,11.61
2022-11-02T17:45:29.933Z,11.60
2022-11-02T17:46:32.916Z,11.59
2022-11-02T17:47:36.058Z,11.58
2022-11-02T17:48:39.221Z,11.59
2022-11-02T17:49:41.550Z,11.56
2022-11-02T17:50:44.313Z,11.56
2022-11-02T17:51:49.747Z,11.54
2022-11-02T17:52:54.052Z,11.57
2022-11-02T17:53:56.405Z,11.56
2022-11-02T17:54:59.694Z,11.60
2022-11-02T17:56:03.206Z,11.62
2022-11-02T17:57:18.708Z,11.69
2022-11-02T17:58:22.232Z,11.62
2022-11-02T17:59:25.903Z,11.63
2022-11-02T18:00:29.541Z,11.67
2022-11-02T18:01:34.941Z,11.70
2022-11-02T18:02:40.901Z,11.73
2022-11-02T18:03:45.393Z,11.69
2022-11-02T18:04:49.934Z,11.68
2022-11-02T18:05:55.809Z,11.66
2022-11-02T18:06:59.379Z,11.68
2022-11-02T18:08:04.970Z,11.71
2022-11-02T18:09:11.667Z,11.77
2022-11-02T18:10:15.082Z,11.75
2022-11-02T18:11:22.100Z,11.80
2022-11-02T18:12:25.151Z,11.82
2022-11-02T18:13:31.504Z,11.83
2022-11-02T18:14:39.651Z,11.80
2022-11-02T18:15:43.469Z,11.79
2022-11-02T18:16:46.393Z,11.75
2022-11-02T18:17:50.493Z,11.73
2022-11-02T18:18:53.566Z,11.74
2022-11-02T18:19:55.830Z,11.75
2022-11-02T18:20:59.334Z,11.75
2022-11-02T18:22:02.649Z,11.74
2022-11-02T18:23:05.748Z,11.70
2022-11-02T18:24:10.669Z,11.72
2022-11-02T18:26:22.498Z,11.73
2022-11-02T18:27:28.758Z,11.77
2022-11-02T18:28:32.318Z,11.73
2022-11-02T18:29:35.411Z,11.77
2022-11-02T18:30:39.851Z,11.79
2022-11-02T18:31:43.042Z,11.78
2022-11-02T18:32:46.972Z,11.79
2022-11-02T18:33:53.012Z,11.77
2022-11-02T18:34:55.751Z,11.75
2022-11-02T18:36:12.356Z,11.75
2022-11-02T18:37:17.696Z,11.78
2022-11-02T18:38:21.421Z,11.75
2022-11-02T18:39:24.821Z,11.77
2022-11-02T18:40:30.222Z,11.76
2022-11-02T18:41:34.843Z,11.78
2022-11-02T18:42:39.873Z,11.68
2022-11-02T18:43:43.154Z,11.67
2022-11-02T18:44:45.894Z,11.55
2022-11-02T18:45:49.194Z,11.59
2022-11-02T18:46:52.598Z,11.62
2022-11-02T18:47:56.197Z,11.67
2022-11-02T18:49:00.127Z,11.74
2022-11-02T18:50:02.575Z,11.76
2022-11-02T18:51:05.466Z,11.76
2022-11-02T18:52:09.800Z,11.75
2022-11-02T18:53:13.194Z,11.74
2022-11-02T18:54:17.326Z,11.72
2022-11-02T18:55:21.990Z,11.71
2022-11-02T18:56:25.497Z,11.64
2022-11-02T18:57:29.040Z,11.71
2022-11-02T18:58:32.149Z,11.68
2022-11-02T18:59:36.940Z,11.62
2022-11-02T19:00:39.356Z,11.66
2022-11-02T19:01:44.913Z,11.65
2022-11-02T19:02:47.257Z,11.71
2022-11-02T19:03:51.910Z,11.72
2022-11-02T19:04:54.150Z,11.69
2022-11-02T19:06:16.771Z,11.74
2022-11-02T19:07:38.878Z,11.78
2022-11-02T19:09:01.547Z,11.79
2022-11-02T19:10:07.477Z,11.82
2022-11-02T19:11:10.795Z,11.73
2022-11-02T19:12:15.355Z,11.70
2022-11-02T19:13:20.965Z,11.66
2022-11-02T19:14:23.920Z,11.67
2022-11-02T19:15:29.003Z,11.66
2022-11-02T19:16:32.288Z,11.69
2022-11-02T19:17:37.056Z,11.66
2022-11-02T19:18:40.068Z,11.48
2022-11-02T19:19:46.676Z,11.52
2022-11-02T19:20:50.895Z,11.54
2022-11-02T19:21:54.618Z,11.59
2022-11-02T19:22:57.810Z,11.60
2022-11-02T19:24:04.238Z,11.61
2022-11-02T19:25:08.009Z,11.64
2022-11-02T19:26:11.314Z,11.68
2022-11-02T19:27:16.019Z,11.68
2022-11-02T19:28:18.362Z,11.67
2022-11-02T19:29:22.529Z,11.58
2022-11-02T19:30:27.890Z,11.58
2022-11-02T19:31:30.254Z,11.66
2022-11-02T19:32:32.499Z,11.56
2022-11-02T19:33:36.003Z,11.49
2022-11-02T19:34:39.404Z,11.33
